Amfitriti — SVCP5 — position and weather

sailwx.info

Track history (hours):
 
Tides and Currents Weather Stations Pressure Air Temp Water Temp Dewpoint Dewpoint Depression Visibility Wind Speed Wind Dir Waves Ship Positions

Amfitriti

Last reported at 2017-Oct-25 23:41 UTC. Time now 2017-Nov-22 03:41 UTC.
Position N 01°15' E 104°03'.
Warning: this ship's position is 27 days out of date.

Length 196 m; draft 11.7 m.

Type: Ship. MMSI: 241508000.

Date/timePositionNaut miles runAvg speedWind from/ knotsBaromVisibWave heightAir tempDewpointWater temp
2017-Oct-25 23:41N 01°15' E 104°03'2 9.2
2017-Oct-25 23:30N 01°14' E 104°01'5 8.2
2017-Oct-25 22:56N 01°15' E 103°57'2 5.3
2017-Oct-25 22:30N 01°17' E 103°55'0 0.4
2017-Oct-25 21:58N 01°17' E 103°55'0 0.0
2017-Oct-25 21:19N 01°17' E 103°55'0 0.0
2017-Oct-25 20:58N 01°17' E 103°55'0 0.0
2017-Oct-25 20:28N 01°17' E 103°55'0 0.0
2017-Oct-25 19:43N 01°17' E 103°55'0 0.0
2017-Oct-25 19:25N 01°17' E 103°55'0 0.0
2017-Oct-25 18:46N 01°17' E 103°55'0 0.1
2017-Oct-25 18:28N 01°17' E 103°55'0 0.0
2017-Oct-25 17:58N 01°17' E 103°55'0 0.1
2017-Oct-25 17:22N 01°17' E 103°55'0 0.0
2017-Oct-25 16:58N 01°17' E 103°55'0 0.1
2017-Oct-25 16:28N 01°17' E 103°55'0 0.1
2017-Oct-25 15:58N 01°17' E 103°55'0 0.3
2017-Oct-25 15:28N 01°17' E 103°56'0 0.1
2017-Oct-25 14:46N 01°17' E 103°56'0 0.0
2017-Oct-25 14:28N 01°17' E 103°56'0 0.0
2017-Oct-25 13:55N 01°17' E 103°56'0 0.0
2017-Oct-25 13:28N 01°17' E 103°56'0 0.0
2017-Oct-25 12:55N 01°17' E 103°56'0 0.0
2017-Oct-25 12:16N 01°17' E 103°56'0 0.0
2017-Oct-25 11:52N 01°17' E 103°56'0 0.0
2017-Oct-25 11:28N 01°17' E 103°56'0 0.0
2017-Oct-25 10:55N 01°17' E 103°56'0 0.0
2017-Oct-25 10:28N 01°17' E 103°56'0 0.2
2017-Oct-25 09:58N 01°17' E 103°56'2 4.4
2017-Oct-25 09:30N 01°15' E 103°57'3 5.8
2017-Oct-25 09:00N 01°13' E 103°55'3 5.9
2017-Oct-25 08:30N 01°12' E 103°53'3 6.8
2017-Oct-25 08:00N 01°10' E 103°50'510.4
2017-Oct-25 07:30N 01°07' E 103°45'5 9.6
2017-Oct-25 07:01N 01°04' E 103°42'4 8.4
2017-Oct-25 06:30N 01°03' E 103°38'611.7
2017-Oct-25 05:57N 01°06' E 103°32'512.2
2017-Oct-25 05:31N 01°09' E 103°27'612.2
2017-Oct-25 04:59N 01°13' E 103°22'612.4
2017-Oct-25 04:30N 01°17' E 103°18'  
Track history (hours):
 
Tides and Currents Weather Stations Pressure Air Temp Water Temp Dewpoint Dewpoint Depression Visibility Wind Speed Wind Dir Waves Ship Positions

Amfitriti

Last reported at 2017-Oct-25 23:41 UTC. Time now 2017-Nov-22 03:41 UTC.
Position N 01°15' E 104°03'.
Warning: this ship's position is 27 days out of date.

Length 196 m; draft 11.7 m.

Type: Ship. MMSI: 241508000.

Date/timePositionNaut miles runAvg speedWind from/ knotsBaromVisibWave heightAir tempDewpointWater temp
2017-Oct-25 23:41N 01°15' E 104°03'2 9.2
2017-Oct-25 23:30N 01°14' E 104°01'5 8.2
2017-Oct-25 22:56N 01°15' E 103°57'2 5.3
2017-Oct-25 22:30N 01°17' E 103°55'0 0.4
2017-Oct-25 21:58N 01°17' E 103°55'0 0.0
2017-Oct-25 21:19N 01°17' E 103°55'0 0.0
2017-Oct-25 20:58N 01°17' E 103°55'0 0.0
2017-Oct-25 20:28N 01°17' E 103°55'0 0.0
2017-Oct-25 19:43N 01°17' E 103°55'0 0.0
2017-Oct-25 19:25N 01°17' E 103°55'0 0.0
2017-Oct-25 18:46N 01°17' E 103°55'0 0.1
2017-Oct-25 18:28N 01°17' E 103°55'0 0.0
2017-Oct-25 17:58N 01°17' E 103°55'0 0.1
2017-Oct-25 17:22N 01°17' E 103°55'0 0.0
2017-Oct-25 16:58N 01°17' E 103°55'0 0.1
2017-Oct-25 16:28N 01°17' E 103°55'0 0.1
2017-Oct-25 15:58N 01°17' E 103°55'0 0.3
2017-Oct-25 15:28N 01°17' E 103°56'0 0.1
2017-Oct-25 14:46N 01°17' E 103°56'0 0.0
2017-Oct-25 14:28N 01°17' E 103°56'0 0.0
2017-Oct-25 13:55N 01°17' E 103°56'0 0.0
2017-Oct-25 13:28N 01°17' E 103°56'0 0.0
2017-Oct-25 12:55N 01°17' E 103°56'0 0.0
2017-Oct-25 12:16N 01°17' E 103°56'0 0.0
2017-Oct-25 11:52N 01°17' E 103°56'0 0.0
2017-Oct-25 11:28N 01°17' E 103°56'0 0.0
2017-Oct-25 10:55N 01°17' E 103°56'0 0.0
2017-Oct-25 10:28N 01°17' E 103°56'0 0.2
2017-Oct-25 09:58N 01°17' E 103°56'2 4.4
2017-Oct-25 09:30N 01°15' E 103°57'3 5.8
2017-Oct-25 09:00N 01°13' E 103°55'3 5.9
2017-Oct-25 08:30N 01°12' E 103°53'3 6.8
2017-Oct-25 08:00N 01°10' E 103°50'510.4
2017-Oct-25 07:30N 01°07' E 103°45'5 9.6
2017-Oct-25 07:01N 01°04' E 103°42'4 8.4
2017-Oct-25 06:30N 01°03' E 103°38'611.7
2017-Oct-25 05:57N 01°06' E 103°32'512.2
2017-Oct-25 05:31N 01°09' E 103°27'612.2
2017-Oct-25 04:59N 01°13' E 103°22'612.4
2017-Oct-25 04:30N 01°17' E 103°18'  

Dump ship's entire track history